PWSweather.com
Personal Weather Stations
Station Observations
K4FB1
Clubhouse Heritage, Lakeland, FL 33812

Clubhouse HeritageLakeland, FL 33812

Lat: 27.969224, Lon: -81.897769

Elevation: 145

Station Type: Davis Vantage Pro2

http://www.ClubhouseWX.com

High Low Average
Temperature 98.2°F36.8°C 72.6°F22.6°C 84.2°F29.0°C
Dew Point 81.7°F27.6°C 71.6°F22.0°C 76.3°F24.6°C
Winds 4.0 mph 6.4 kmh Calm Calm 2.0 mph SSW3.2 kmh SSW
Wind Gusts 11.0 mph17.7 kmh -- 5.0 mph8.0 kmh
Humidity 99% 52% 79%
Pressure 30.13 in1020.3 mb 30.05 in1017.6 mb -
Precipitation 0.00 in0.0 mm - -
Hour Temp Dew Point Humidity Winds Wind Gusts Pressure Precip Precip Rate Daily Precip Total
12:00 AM 77.1°F25.1°C 74.3°F23.5°C 91% Calm Calm 2.0 mph3.2 kmh 30.09 in1019.0 mb 0.00 in0.0 mm 0.00 in0.0 mm 0.00 in0.0 mm
12:05 AM 77.0°F25.0°C 74.2°F23.4°C 91% Calm Calm 2.0 mph3.2 kmh 30.08 in1018.6 mb 0.00 in0.0 mm 0.00 in0.0 mm 0.00 in0.0 mm
12:10 AM 76.9°F24.9°C 74.4°F23.6°C 92% Calm Calm 1.0 mph1.6 kmh 30.08 in1018.6 mb 0.00 in0.0 mm 0.00 in0.0 mm 0.00 in0.0 mm
12:15 AM 76.6°F24.8°C 73.8°F23.2°C 91% Calm Calm 1.0 mph1.6 kmh 30.08 in1018.6 mb 0.00 in0.0 mm 0.00 in0.0 mm 0.00 in0.0 mm
12:20 AM 76.5°F24.7°C 74.0°F23.3°C 92% Calm Calm 1.0 mph1.6 kmh 30.08 in1018.6 mb 0.00 in0.0 mm 0.00 in0.0 mm 0.00 in0.0 mm
12:25 AM 76.3°F24.6°C 73.8°F23.2°C 92% Calm Calm 1.0 mph1.6 kmh 30.08 in1018.6 mb 0.00 in0.0 mm 0.00 in0.0 mm 0.00 in0.0 mm
12:30 AM 76.1°F24.5°C 73.6°F23.1°C 92% Calm Calm 1.0 mph1.6 kmh 30.08 in1018.6 mb 0.00 in0.0 mm 0.00 in0.0 mm 0.00 in0.0 mm
12:35 AM 75.9°F24.4°C 73.7°F23.2°C 93% Calm Calm 1.0 mph1.6 kmh 30.08 in1018.6 mb 0.00 in0.0 mm 0.00 in0.0 mm 0.00 in0.0 mm
12:40 AM 75.8°F24.3°C 73.6°F23.1°C 93% Calm Calm 1.0 mph1.6 kmh 30.07 in1018.3 mb 0.00 in0.0 mm 0.00 in0.0 mm 0.00 in0.0 mm
12:45 AM 75.6°F24.2°C 73.4°F23.0°C 93% Calm Calm 1.0 mph1.6 kmh 30.07 in1018.3 mb 0.00 in0.0 mm 0.00 in0.0 mm 0.00 in0.0 mm
12:50 AM 75.5°F24.2°C 73.3°F22.9°C 93% Calm Calm 1.0 mph1.6 kmh 30.07 in1018.3 mb 0.00 in0.0 mm 0.00 in0.0 mm 0.00 in0.0 mm
12:55 AM 75.4°F24.1°C 73.6°F23.1°C 94% Calm Calm 1.0 mph1.6 kmh 30.07 in1018.3 mb 0.00 in0.0 mm 0.00 in0.0 mm 0.00 in0.0 mm
01:00 AM 75.3°F24.1°C 73.5°F23.1°C 94% Calm Calm 1.0 mph1.6 kmh 30.07 in1018.3 mb 0.00 in0.0 mm 0.00 in0.0 mm 0.00 in0.0 mm
01:05 AM 75.1°F23.9°C 73.6°F23.1°C 95% 1.0 mph NW1.6 kmh NW 3.0 mph4.8 kmh 30.07 in1018.3 mb 0.00 in0.0 mm 0.00 in0.0 mm 0.00 in0.0 mm
01:10 AM 75.2°F24.0°C 73.7°F23.2°C 95% 1.0 mph NW1.6 kmh NW 3.0 mph4.8 kmh 30.07 in1018.3 mb 0.00 in0.0 mm 0.00 in0.0 mm 0.00 in0.0 mm
01:15 AM 75.2°F24.0°C 74.0°F23.3°C 96% 1.0 mph NW1.6 kmh NW 3.0 mph4.8 kmh 30.07 in1018.3 mb 0.00 in0.0 mm 0.00 in0.0 mm 0.00 in0.0 mm
01:20 AM 75.3°F24.1°C 74.1°F23.4°C 96% 1.0 mph NW1.6 kmh NW 2.0 mph3.2 kmh 30.06 in1017.9 mb 0.00 in0.0 mm 0.00 in0.0 mm 0.00 in0.0 mm
01:25 AM 75.4°F24.1°C 74.2°F23.4°C 96% 1.0 mph NW1.6 kmh NW 2.0 mph3.2 kmh 30.06 in1017.9 mb 0.00 in0.0 mm 0.00 in0.0 mm 0.00 in0.0 mm
01:30 AM 75.3°F24.1°C 73.8°F23.2°C 95% Calm Calm 2.0 mph3.2 kmh 30.06 in1017.9 mb 0.00 in0.0 mm 0.00 in0.0 mm 0.00 in0.0 mm
01:35 AM 75.3°F24.1°C 73.8°F23.2°C 95% Calm Calm 1.0 mph1.6 kmh 30.06 in1017.9 mb 0.00 in0.0 mm 0.00 in0.0 mm 0.00 in0.0 mm
01:40 AM 75.2°F24.0°C 74.0°F23.3°C 96% Calm Calm 2.0 mph3.2 kmh 30.06 in1017.9 mb 0.00 in0.0 mm 0.00 in0.0 mm 0.00 in0.0 mm
01:45 AM 75.1°F23.9°C 73.9°F23.3°C 96% Calm Calm 2.0 mph3.2 kmh 30.06 in1017.9 mb 0.00 in0.0 mm 0.00 in0.0 mm 0.00 in0.0 mm
01:50 AM 75.2°F24.0°C 74.0°F23.3°C 96% Calm Calm 2.0 mph3.2 kmh 30.06 in1017.9 mb 0.00 in0.0 mm 0.00 in0.0 mm 0.00 in0.0 mm
01:55 AM 75.1°F23.9°C 73.9°F23.3°C 96% Calm Calm 1.0 mph1.6 kmh 30.06 in1017.9 mb 0.00 in0.0 mm 0.00 in0.0 mm 0.00 in0.0 mm
02:00 AM 75.0°F23.9°C 73.8°F23.2°C 96% Calm Calm 2.0 mph3.2 kmh 30.06 in1017.9 mb 0.00 in0.0 mm 0.00 in0.0 mm 0.00 in0.0 mm
02:05 AM 75.0°F23.9°C 73.8°F23.2°C 96% Calm Calm 2.0 mph3.2 kmh 30.06 in1017.9 mb 0.00 in0.0 mm 0.00 in0.0 mm 0.00 in0.0 mm
02:10 AM 74.9°F23.8°C 73.7°F23.2°C 96% Calm Calm 1.0 mph1.6 kmh 30.06 in1017.9 mb 0.00 in0.0 mm 0.00 in0.0 mm 0.00 in0.0 mm
02:15 AM 74.9°F23.8°C 73.7°F23.2°C 96% Calm Calm 1.0 mph1.6 kmh 30.06 in1017.9 mb 0.00 in0.0 mm 0.00 in0.0 mm 0.00 in0.0 mm
02:20 AM 74.8°F23.8°C 73.6°F23.1°C 96% Calm Calm 1.0 mph1.6 kmh 30.06 in1017.9 mb 0.00 in0.0 mm 0.00 in0.0 mm 0.00 in0.0 mm
02:25 AM 74.6°F23.7°C 73.4°F23.0°C 96% Calm Calm 1.0 mph1.6 kmh 30.06 in1017.9 mb 0.00 in0.0 mm 0.00 in0.0 mm 0.00 in0.0 mm
02:30 AM 74.6°F23.7°C 73.4°F23.0°C 96% Calm Calm 1.0 mph1.6 kmh 30.06 in1017.9 mb 0.00 in0.0 mm 0.00 in0.0 mm 0.00 in0.0 mm
02:35 AM 74.5°F23.6°C 73.3°F22.9°C 96% Calm Calm 1.0 mph1.6 kmh 30.06 in1017.9 mb 0.00 in0.0 mm 0.00 in0.0 mm 0.00 in0.0 mm
02:40 AM 74.4°F23.6°C 73.2°F22.9°C 96% Calm Calm -- 30.06 in1017.9 mb 0.00 in0.0 mm 0.00 in0.0 mm 0.00 in0.0 mm
02:45 AM 74.3°F23.5°C 73.1°F22.8°C 96% Calm Calm -- 30.06 in1017.9 mb 0.00 in0.0 mm 0.00 in0.0 mm 0.00 in0.0 mm
02:50 AM 74.2°F23.4°C 73.0°F22.8°C 96% Calm Calm -- 30.06 in1017.9 mb 0.00 in0.0 mm 0.00 in0.0 mm 0.00 in0.0 mm
02:55 AM 74.0°F23.3°C 72.8°F22.7°C 96% Calm Calm 1.0 mph1.6 kmh 30.06 in1017.9 mb 0.00 in0.0 mm 0.00 in0.0 mm 0.00 in0.0 mm
03:00 AM 73.9°F23.3°C 72.7°F22.6°C 96% Calm Calm 1.0 mph1.6 kmh 30.05 in1017.6 mb 0.00 in0.0 mm 0.00 in0.0 mm 0.00 in0.0 mm
03:05 AM 73.9°F23.3°C 72.7°F22.6°C 96% Calm Calm -- 30.05 in1017.6 mb 0.00 in0.0 mm 0.00 in0.0 mm 0.00 in0.0 mm
03:10 AM 73.8°F23.2°C 72.6°F22.6°C 96% Calm Calm -- 30.05 in1017.6 mb 0.00 in0.0 mm 0.00 in0.0 mm 0.00 in0.0 mm
03:15 AM 73.7°F23.2°C 72.5°F22.5°C 96% Calm Calm 1.0 mph1.6 kmh 30.05 in1017.6 mb 0.00 in0.0 mm 0.00 in0.0 mm 0.00 in0.0 mm
03:20 AM 73.7°F23.2°C 72.8°F22.7°C 97% Calm Calm 1.0 mph1.6 kmh 30.05 in1017.6 mb 0.00 in0.0 mm 0.00 in0.0 mm 0.00 in0.0 mm
03:25 AM 73.7°F23.2°C 72.8°F22.7°C 97% Calm Calm 1.0 mph1.6 kmh 30.05 in1017.6 mb 0.00 in0.0 mm 0.00 in0.0 mm 0.00 in0.0 mm
03:30 AM 73.6°F23.1°C 72.4°F22.4°C 96% Calm Calm 1.0 mph1.6 kmh 30.05 in1017.6 mb 0.00 in0.0 mm 0.00 in0.0 mm 0.00 in0.0 mm
03:35 AM 73.5°F23.1°C 72.3°F22.4°C 96% Calm Calm 1.0 mph1.6 kmh 30.05 in1017.6 mb 0.00 in0.0 mm 0.00 in0.0 mm 0.00 in0.0 mm
03:40 AM 73.4°F23.0°C 72.2°F22.3°C 96% Calm Calm 1.0 mph1.6 kmh 30.05 in1017.6 mb 0.00 in0.0 mm 0.00 in0.0 mm 0.00 in0.0 mm
03:45 AM 73.3°F22.9°C 72.1°F22.3°C 96% Calm Calm -- 30.05 in1017.6 mb 0.00 in0.0 mm 0.00 in0.0 mm 0.00 in0.0 mm
03:50 AM 73.2°F22.9°C 72.0°F22.2°C 96% Calm Calm -- 30.05 in1017.6 mb 0.00 in0.0 mm 0.00 in0.0 mm 0.00 in0.0 mm
03:55 AM 73.2°F22.9°C 72.3°F22.4°C 97% Calm Calm -- 30.05 in1017.6 mb 0.00 in0.0 mm 0.00 in0.0 mm 0.00 in0.0 mm
04:00 AM 73.1°F22.8°C 72.2°F22.3°C 97% Calm Calm -- 30.06 in1017.9 mb 0.00 in0.0 mm 0.00 in0.0 mm 0.00 in0.0 mm
04:05 AM 73.0°F22.8°C 72.1°F22.3°C 97% Calm Calm -- 30.05 in1017.6 mb 0.00 in0.0 mm 0.00 in0.0 mm 0.00 in0.0 mm
04:10 AM 73.1°F22.8°C 72.2°F22.3°C 97% Calm Calm -- 30.05 in1017.6 mb 0.00 in0.0 mm 0.00 in0.0 mm 0.00 in0.0 mm
04:15 AM 73.0°F22.8°C 72.1°F22.3°C 97% Calm Calm -- 30.05 in1017.6 mb 0.00 in0.0 mm 0.00 in0.0 mm 0.00 in0.0 mm
04:20 AM 72.9°F22.7°C 71.7°F22.1°C 96% Calm Calm -- 30.05 in1017.6 mb 0.00 in0.0 mm 0.00 in0.0 mm 0.00 in0.0 mm
04:25 AM 72.8°F22.7°C 71.6°F22.0°C 96% Calm Calm -- 30.05 in1017.6 mb 0.00 in0.0 mm 0.00 in0.0 mm 0.00 in0.0 mm
04:30 AM 72.7°F22.6°C 71.8°F22.1°C 97% Calm Calm 1.0 mph1.6 kmh 30.06 in1017.9 mb 0.00 in0.0 mm 0.00 in0.0 mm 0.00 in0.0 mm
04:35 AM 72.6°F22.6°C 71.7°F22.1°C 97% Calm Calm 1.0 mph1.6 kmh 30.06 in1017.9 mb 0.00 in0.0 mm 0.00 in0.0 mm 0.00 in0.0 mm
04:40 AM 72.6°F22.6°C 71.7°F22.1°C 97% Calm Calm 3.0 mph4.8 kmh 30.06 in1017.9 mb 0.00 in0.0 mm 0.00 in0.0 mm 0.00 in0.0 mm
04:45 AM 72.8°F22.7°C 72.2°F22.3°C 98% 1.0 mph NW1.6 kmh NW 3.0 mph4.8 kmh 30.05 in1017.6 mb 0.00 in0.0 mm 0.00 in0.0 mm 0.00 in0.0 mm
04:50 AM 73.3°F22.9°C 72.7°F22.6°C 98% 1.0 mph NW1.6 kmh NW 3.0 mph4.8 kmh 30.06 in1017.9 mb 0.00 in0.0 mm 0.00 in0.0 mm 0.00 in0.0 mm
04:55 AM 73.8°F23.2°C 73.2°F22.9°C 98% 1.0 mph NW1.6 kmh NW 3.0 mph4.8 kmh 30.05 in1017.6 mb 0.00 in0.0 mm 0.00 in0.0 mm 0.00 in0.0 mm
05:00 AM 74.3°F23.5°C 73.7°F23.2°C 98% 1.0 mph NW1.6 kmh NW 4.0 mph6.4 kmh 30.05 in1017.6 mb 0.00 in0.0 mm 0.00 in0.0 mm 0.00 in0.0 mm
05:05 AM 74.5°F23.6°C 73.9°F23.3°C 98% 1.0 mph NW1.6 kmh NW 4.0 mph6.4 kmh 30.06 in1017.9 mb 0.00 in0.0 mm 0.00 in0.0 mm 0.00 in0.0 mm
05:10 AM 74.7°F23.7°C 74.1°F23.4°C 98% 1.0 mph NW1.6 kmh NW 3.0 mph4.8 kmh 30.06 in1017.9 mb 0.00 in0.0 mm 0.00 in0.0 mm 0.00 in0.0 mm
05:15 AM 74.8°F23.8°C 74.2°F23.4°C 98% 1.0 mph NW1.6 kmh NW 3.0 mph4.8 kmh 30.06 in1017.9 mb 0.00 in0.0 mm 0.00 in0.0 mm 0.00 in0.0 mm
05:20 AM 74.7°F23.7°C 74.1°F23.4°C 98% Calm Calm 2.0 mph3.2 kmh 30.06 in1017.9 mb 0.00 in0.0 mm 0.00 in0.0 mm 0.00 in0.0 mm
05:25 AM 74.6°F23.7°C 74.0°F23.3°C 98% Calm Calm 2.0 mph3.2 kmh 30.07 in1018.3 mb 0.00 in0.0 mm 0.00 in0.0 mm 0.00 in0.0 mm
05:30 AM 74.6°F23.7°C 74.0°F23.3°C 98% Calm Calm 2.0 mph3.2 kmh 30.07 in1018.3 mb 0.00 in0.0 mm 0.00 in0.0 mm 0.00 in0.0 mm
05:35 AM 74.5°F23.6°C 73.9°F23.3°C 98% Calm Calm 2.0 mph3.2 kmh 30.07 in1018.3 mb 0.00 in0.0 mm 0.00 in0.0 mm 0.00 in0.0 mm
05:40 AM 74.4°F23.6°C 73.8°F23.2°C 98% Calm Calm 2.0 mph3.2 kmh 30.07 in1018.3 mb 0.00 in0.0 mm 0.00 in0.0 mm 0.00 in0.0 mm
05:45 AM 74.4°F23.6°C 73.8°F23.2°C 98% Calm Calm 1.0 mph1.6 kmh 30.07 in1018.3 mb 0.00 in0.0 mm 0.00 in0.0 mm 0.00 in0.0 mm
05:50 AM 74.3°F23.5°C 73.7°F23.2°C 98% Calm Calm -- 30.07 in1018.3 mb 0.00 in0.0 mm 0.00 in0.0 mm 0.00 in0.0 mm
05:55 AM 74.3°F23.5°C 73.7°F23.2°C 98% Calm Calm -- 30.08 in1018.6 mb 0.00 in0.0 mm 0.00 in0.0 mm 0.00 in0.0 mm
06:00 AM 74.3°F23.5°C 73.7°F23.2°C 98% Calm Calm -- 30.08 in1018.6 mb 0.00 in0.0 mm 0.00 in0.0 mm 0.00 in0.0 mm
06:05 AM 74.4°F23.6°C 73.8°F23.2°C 98% Calm Calm -- 30.08 in1018.6 mb 0.00 in0.0 mm 0.00 in0.0 mm 0.00 in0.0 mm
06:10 AM 74.4°F23.6°C 73.8°F23.2°C 98% Calm Calm 1.0 mph1.6 kmh 30.08 in1018.6 mb 0.00 in0.0 mm 0.00 in0.0 mm 0.00 in0.0 mm
06:15 AM 74.4°F23.6°C 73.8°F23.2°C 98% Calm Calm 1.0 mph1.6 kmh 30.08 in1018.6 mb 0.00 in0.0 mm 0.00 in0.0 mm 0.00 in0.0 mm
06:20 AM 74.7°F23.7°C 74.1°F23.4°C 98% Calm Calm 2.0 mph3.2 kmh 30.09 in1019.0 mb 0.00 in0.0 mm 0.00 in0.0 mm 0.00 in0.0 mm
06:25 AM 75.0°F23.9°C 74.4°F23.6°C 98% 1.0 mph NW1.6 kmh NW 2.0 mph3.2 kmh 30.09 in1019.0 mb 0.00 in0.0 mm 0.00 in0.0 mm 0.00 in0.0 mm
06:30 AM 75.6°F24.2°C 75.0°F23.9°C 98% 1.0 mph NW1.6 kmh NW 4.0 mph6.4 kmh 30.09 in1019.0 mb 0.00 in0.0 mm 0.00 in0.0 mm 0.00 in0.0 mm
06:35 AM 76.0°F24.4°C 75.7°F24.3°C 99% 1.0 mph NW1.6 kmh NW 4.0 mph6.4 kmh 30.09 in1019.0 mb 0.00 in0.0 mm 0.00 in0.0 mm 0.00 in0.0 mm
06:40 AM 76.3°F24.6°C 75.7°F24.3°C 98% 1.0 mph NW1.6 kmh NW 2.0 mph3.2 kmh 30.09 in1019.0 mb 0.00 in0.0 mm 0.00 in0.0 mm 0.00 in0.0 mm
06:45 AM 76.5°F24.7°C 76.2°F24.6°C 99% 1.0 mph NW1.6 kmh NW 2.0 mph3.2 kmh 30.09 in1019.0 mb 0.00 in0.0 mm 0.00 in0.0 mm 0.00 in0.0 mm
06:50 AM 76.7°F24.8°C 76.4°F24.7°C 99% Calm Calm 2.0 mph3.2 kmh 30.09 in1019.0 mb 0.00 in0.0 mm 0.00 in0.0 mm 0.00 in0.0 mm
06:55 AM 77.0°F25.0°C 76.7°F24.8°C 99% Calm Calm 2.0 mph3.2 kmh 30.09 in1019.0 mb 0.00 in0.0 mm 0.00 in0.0 mm 0.00 in0.0 mm
07:00 AM 77.2°F25.1°C 76.6°F24.8°C 98% Calm Calm 2.0 mph3.2 kmh 30.09 in1019.0 mb 0.00 in0.0 mm 0.00 in0.0 mm 0.00 in0.0 mm
07:05 AM 77.5°F25.3°C 77.2°F25.1°C 99% Calm Calm 2.0 mph3.2 kmh 30.09 in1019.0 mb 0.00 in0.0 mm 0.00 in0.0 mm 0.00 in0.0 mm
07:10 AM 77.8°F25.4°C 77.5°F25.3°C 99% Calm Calm 2.0 mph3.2 kmh 30.09 in1019.0 mb 0.00 in0.0 mm 0.00 in0.0 mm 0.00 in0.0 mm
07:15 AM 78.0°F25.6°C 77.4°F25.2°C 98% 1.0 mph NW1.6 kmh NW 3.0 mph4.8 kmh 30.09 in1019.0 mb 0.00 in0.0 mm 0.00 in0.0 mm 0.00 in0.0 mm
07:20 AM 78.2°F25.7°C 77.6°F25.3°C 98% 1.0 mph NW1.6 kmh NW 3.0 mph4.8 kmh 30.09 in1019.0 mb 0.00 in0.0 mm 0.00 in0.0 mm 0.00 in0.0 mm
07:25 AM 78.5°F25.8°C 77.9°F25.5°C 98% Calm Calm 2.0 mph3.2 kmh 30.10 in1019.3 mb 0.00 in0.0 mm 0.00 in0.0 mm 0.00 in0.0 mm
07:30 AM 78.7°F25.9°C 77.5°F25.3°C 96% 1.0 mph NW1.6 kmh NW 3.0 mph4.8 kmh 30.10 in1019.3 mb 0.00 in0.0 mm 0.00 in0.0 mm 0.00 in0.0 mm
07:35 AM 78.9°F26.1°C 77.7°F25.4°C 96% 1.0 mph NW1.6 kmh NW 3.0 mph4.8 kmh 30.10 in1019.3 mb 0.00 in0.0 mm 0.00 in0.0 mm 0.00 in0.0 mm
07:40 AM 79.1°F26.2°C 77.9°F25.5°C 96% 1.0 mph NW1.6 kmh NW 2.0 mph3.2 kmh 30.10 in1019.3 mb 0.00 in0.0 mm 0.00 in0.0 mm 0.00 in0.0 mm
07:45 AM 79.3°F26.3°C 78.1°F25.6°C 96% 1.0 mph NW1.6 kmh NW 2.0 mph3.2 kmh 30.10 in1019.3 mb 0.00 in0.0 mm 0.00 in0.0 mm 0.00 in0.0 mm
07:50 AM 79.8°F26.6°C 78.2°F25.7°C 95% 1.0 mph NW1.6 kmh NW 2.0 mph3.2 kmh 30.11 in1019.6 mb 0.00 in0.0 mm 0.00 in0.0 mm 0.00 in0.0 mm
07:55 AM 80.4°F26.9°C 78.5°F25.8°C 94% 1.0 mph NW1.6 kmh NW 3.0 mph4.8 kmh 30.10 in1019.3 mb 0.00 in0.0 mm 0.00 in0.0 mm 0.00 in0.0 mm
08:00 AM 80.9°F27.2°C 78.7°F25.9°C 93% 1.0 mph NW1.6 kmh NW 4.0 mph6.4 kmh 30.11 in1019.6 mb 0.00 in0.0 mm 0.00 in0.0 mm 0.00 in0.0 mm
08:05 AM 81.5°F27.5°C 78.6°F25.9°C 91% 2.0 mph NW3.2 kmh NW 6.0 mph9.7 kmh 30.11 in1019.6 mb 0.00 in0.0 mm 0.00 in0.0 mm 0.00 in0.0 mm
08:10 AM 81.8°F27.7°C 78.9°F26.1°C 91% 2.0 mph NW3.2 kmh NW 6.0 mph9.7 kmh 30.11 in1019.6 mb 0.00 in0.0 mm 0.00 in0.0 mm 0.00 in0.0 mm
08:15 AM 82.5°F28.1°C 79.6°F26.4°C 91% 2.0 mph NW3.2 kmh NW 5.0 mph8.0 kmh 30.12 in1020.0 mb 0.00 in0.0 mm 0.00 in0.0 mm 0.00 in0.0 mm
08:20 AM 83.1°F28.4°C 79.5°F26.4°C 89% 2.0 mph WNW3.2 kmh WNW 7.0 mph11.3 kmh 30.12 in1020.0 mb 0.00 in0.0 mm 0.00 in0.0 mm 0.00 in0.0 mm
08:25 AM 84.0°F28.9°C 79.7°F26.5°C 87% 2.0 mph W3.2 kmh W 7.0 mph11.3 kmh 30.12 in1020.0 mb 0.00 in0.0 mm 0.00 in0.0 mm 0.00 in0.0 mm
08:30 AM 84.8°F29.3°C 80.1°F26.7°C 86% 2.0 mph NW3.2 kmh NW 5.0 mph8.0 kmh 30.12 in1020.0 mb 0.00 in0.0 mm 0.00 in0.0 mm 0.00 in0.0 mm
08:35 AM 85.2°F29.6°C 79.8°F26.6°C 84% 2.0 mph NW3.2 kmh NW 5.0 mph8.0 kmh 30.12 in1020.0 mb 0.00 in0.0 mm 0.00 in0.0 mm 0.00 in0.0 mm
08:40 AM 85.8°F29.9°C 80.4°F26.9°C 84% 2.0 mph NW3.2 kmh NW 5.0 mph8.0 kmh 30.12 in1020.0 mb 0.00 in0.0 mm 0.00 in0.0 mm 0.00 in0.0 mm
08:45 AM 86.3°F30.2°C 80.5°F26.9°C 83% 2.0 mph NW3.2 kmh NW 5.0 mph8.0 kmh 30.12 in1020.0 mb 0.00 in0.0 mm 0.00 in0.0 mm 0.00 in0.0 mm
08:50 AM 86.9°F30.5°C 80.4°F26.9°C 81% 2.0 mph NW3.2 kmh NW 5.0 mph8.0 kmh 30.12 in1020.0 mb 0.00 in0.0 mm 0.00 in0.0 mm 0.00 in0.0 mm
08:55 AM 87.2°F30.7°C 79.9°F26.6°C 79% 2.0 mph NW3.2 kmh NW 4.0 mph6.4 kmh 30.12 in1020.0 mb 0.00 in0.0 mm 0.00 in0.0 mm 0.00 in0.0 mm
09:00 AM 87.7°F30.9°C 80.4°F26.9°C 79% 2.0 mph NNW3.2 kmh NNW 4.0 mph6.4 kmh 30.12 in1020.0 mb 0.00 in0.0 mm 0.00 in0.0 mm 0.00 in0.0 mm
09:05 AM 88.1°F31.2°C 79.6°F26.4°C 76% 2.0 mph N3.2 kmh N 5.0 mph8.0 kmh 30.12 in1020.0 mb 0.00 in0.0 mm 0.00 in0.0 mm 0.00 in0.0 mm
09:10 AM 88.4°F31.3°C 79.9°F26.6°C 76% 3.0 mph NW4.8 kmh NW 7.0 mph11.3 kmh 30.12 in1020.0 mb 0.00 in0.0 mm 0.00 in0.0 mm 0.00 in0.0 mm
09:15 AM 88.4°F31.3°C 79.5°F26.4°C 75% 3.0 mph NW4.8 kmh NW 7.0 mph11.3 kmh 30.12 in1020.0 mb 0.00 in0.0 mm 0.00 in0.0 mm 0.00 in0.0 mm
09:20 AM 88.6°F31.4°C 79.7°F26.5°C 75% 2.0 mph WNW3.2 kmh WNW 5.0 mph8.0 kmh 30.12 in1020.0 mb 0.00 in0.0 mm 0.00 in0.0 mm 0.00 in0.0 mm
09:25 AM 88.7°F31.5°C 78.9°F26.1°C 73% 3.0 mph NW4.8 kmh NW 9.0 mph14.5 kmh 30.12 in1020.0 mb 0.00 in0.0 mm 0.00 in0.0 mm 0.00 in0.0 mm
09:30 AM 88.8°F31.6°C 79.4°F26.3°C 74% 3.0 mph NW4.8 kmh NW 9.0 mph14.5 kmh 30.12 in1020.0 mb 0.00 in0.0 mm 0.00 in0.0 mm 0.00 in0.0 mm
09:35 AM 89.0°F31.7°C 79.6°F26.4°C 74% 3.0 mph NNW4.8 kmh NNW 6.0 mph9.7 kmh 30.12 in1020.0 mb 0.00 in0.0 mm 0.00 in0.0 mm 0.00 in0.0 mm
09:40 AM 89.3°F31.8°C 81.1°F27.3°C 77% 3.0 mph NW4.8 kmh NW 5.0 mph8.0 kmh 30.12 in1020.0 mb 0.00 in0.0 mm 0.00 in0.0 mm 0.00 in0.0 mm
09:45 AM 89.6°F32.0°C 79.4°F26.3°C 72% 3.0 mph NW4.8 kmh NW 6.0 mph9.7 kmh 30.12 in1020.0 mb 0.00 in0.0 mm 0.00 in0.0 mm 0.00 in0.0 mm
09:50 AM 89.8°F32.1°C 79.6°F26.4°C 72% 3.0 mph NNW4.8 kmh NNW 7.0 mph11.3 kmh 30.12 in1020.0 mb 0.00 in0.0 mm 0.00 in0.0 mm 0.00 in0.0 mm
09:55 AM 89.7°F32.1°C 79.5°F26.4°C 72% 3.0 mph N4.8 kmh N 7.0 mph11.3 kmh 30.12 in1020.0 mb 0.00 in0.0 mm 0.00 in0.0 mm 0.00 in0.0 mm
10:00 AM 89.7°F32.1°C 79.9°F26.6°C 73% 2.0 mph NNW3.2 kmh NNW 4.0 mph6.4 kmh 30.13 in1020.3 mb 0.00 in0.0 mm 0.00 in0.0 mm 0.00 in0.0 mm
10:05 AM 90.3°F32.4°C 80.5°F26.9°C 73% 2.0 mph NW3.2 kmh NW 4.0 mph6.4 kmh 30.13 in1020.3 mb 0.00 in0.0 mm 0.00 in0.0 mm 0.00 in0.0 mm
10:10 AM 91.1°F32.8°C 79.9°F26.6°C 70% 2.0 mph NW3.2 kmh NW 6.0 mph9.7 kmh 30.13 in1020.3 mb 0.00 in0.0 mm 0.00 in0.0 mm 0.00 in0.0 mm
10:15 AM 91.6°F33.1°C 80.4°F26.9°C 70% 3.0 mph NW4.8 kmh NW 6.0 mph9.7 kmh 30.13 in1020.3 mb 0.00 in0.0 mm 0.00 in0.0 mm 0.00 in0.0 mm
10:20 AM 91.9°F33.3°C 80.7°F27.1°C 70% 3.0 mph NW4.8 kmh NW 9.0 mph14.5 kmh 30.13 in1020.3 mb 0.00 in0.0 mm 0.00 in0.0 mm 0.00 in0.0 mm
10:25 AM 92.0°F33.3°C 80.4°F26.9°C 69% 3.0 mph NNW4.8 kmh NNW 9.0 mph14.5 kmh 30.13 in1020.3 mb 0.00 in0.0 mm 0.00 in0.0 mm 0.00 in0.0 mm
10:30 AM 92.2°F33.4°C 80.1°F26.7°C 68% 3.0 mph NNW4.8 kmh NNW 9.0 mph14.5 kmh 30.13 in1020.3 mb 0.00 in0.0 mm 0.00 in0.0 mm 0.00 in0.0 mm
10:35 AM 92.5°F33.6°C 79.0°F26.1°C 65% 3.0 mph NW4.8 kmh NW 9.0 mph14.5 kmh 30.13 in1020.3 mb 0.00 in0.0 mm 0.00 in0.0 mm 0.00 in0.0 mm
10:40 AM 92.4°F33.6°C 79.4°F26.3°C 66% 4.0 mph NW6.4 kmh NW 10.0 mph16.1 kmh 30.13 in1020.3 mb 0.00 in0.0 mm 0.00 in0.0 mm 0.00 in0.0 mm
10:45 AM 92.7°F33.7°C 78.3°F25.7°C 63% 4.0 mph NW6.4 kmh NW 10.0 mph16.1 kmh 30.13 in1020.3 mb 0.00 in0.0 mm 0.00 in0.0 mm 0.00 in0.0 mm
10:50 AM 92.9°F33.8°C 79.9°F26.6°C 66% 3.0 mph NW4.8 kmh NW 8.0 mph12.9 kmh 30.13 in1020.3 mb 0.00 in0.0 mm 0.00 in0.0 mm 0.00 in0.0 mm
10:55 AM 92.6°F33.7°C 78.2°F25.7°C 63% 3.0 mph NW4.8 kmh NW 8.0 mph12.9 kmh 30.13 in1020.3 mb 0.00 in0.0 mm 0.00 in0.0 mm 0.00 in0.0 mm
11:00 AM 92.2°F33.4°C 78.7°F25.9°C 65% 3.0 mph NNW4.8 kmh NNW 8.0 mph12.9 kmh 30.13 in1020.3 mb 0.00 in0.0 mm 0.00 in0.0 mm 0.00 in0.0 mm
11:05 AM 91.8°F33.2°C 78.4°F25.8°C 65% 3.0 mph NNW4.8 kmh NNW 8.0 mph12.9 kmh 30.13 in1020.3 mb 0.00 in0.0 mm 0.00 in0.0 mm 0.00 in0.0 mm
11:10 AM 91.3°F32.9°C 76.9°F24.9°C 63% 3.0 mph NNW4.8 kmh NNW 7.0 mph11.3 kmh 30.13 in1020.3 mb 0.00 in0.0 mm 0.00 in0.0 mm 0.00 in0.0 mm
11:15 AM 90.7°F32.6°C 77.3°F25.2°C 65% 4.0 mph NW6.4 kmh NW 9.0 mph14.5 kmh 30.13 in1020.3 mb 0.00 in0.0 mm 0.00 in0.0 mm 0.00 in0.0 mm
11:20 AM 90.3°F32.4°C 77.8°F25.4°C 67% 3.0 mph NW4.8 kmh NW 9.0 mph14.5 kmh 30.13 in1020.3 mb 0.00 in0.0 mm 0.00 in0.0 mm 0.00 in0.0 mm
11:25 AM 90.0°F32.2°C 77.6°F25.3°C 67% 3.0 mph NW4.8 kmh NW 6.0 mph9.7 kmh 30.12 in1020.0 mb 0.00 in0.0 mm 0.00 in0.0 mm 0.00 in0.0 mm
11:30 AM 89.8°F32.1°C 77.4°F25.2°C 67% 3.0 mph NW4.8 kmh NW 5.0 mph8.0 kmh 30.13 in1020.3 mb 0.00 in0.0 mm 0.00 in0.0 mm 0.00 in0.0 mm
11:35 AM 89.7°F32.1°C 77.7°F25.4°C 68% 2.0 mph NNW3.2 kmh NNW 5.0 mph8.0 kmh 30.13 in1020.3 mb 0.00 in0.0 mm 0.00 in0.0 mm 0.00 in0.0 mm
11:40 AM 89.7°F32.1°C 77.3°F25.2°C 67% 2.0 mph NW3.2 kmh NW 8.0 mph12.9 kmh 30.13 in1020.3 mb 0.00 in0.0 mm 0.00 in0.0 mm 0.00 in0.0 mm
11:45 AM 89.6°F32.0°C 77.6°F25.3°C 68% 3.0 mph W4.8 kmh W 8.0 mph12.9 kmh 30.12 in1020.0 mb 0.00 in0.0 mm 0.00 in0.0 mm 0.00 in0.0 mm
11:50 AM 89.7°F32.1°C 78.2°F25.7°C 69% 2.0 mph W3.2 kmh W 8.0 mph12.9 kmh 30.12 in1020.0 mb 0.00 in0.0 mm 0.00 in0.0 mm 0.00 in0.0 mm
11:55 AM 90.1°F32.3°C 78.1°F25.6°C 68% 2.0 mph WNW3.2 kmh WNW 4.0 mph6.4 kmh 30.12 in1020.0 mb 0.00 in0.0 mm 0.00 in0.0 mm 0.00 in0.0 mm
12:00 PM 90.3°F32.4°C 77.8°F25.4°C 67% 2.0 mph WNW3.2 kmh WNW 5.0 mph8.0 kmh 30.12 in1020.0 mb 0.00 in0.0 mm 0.00 in0.0 mm 0.00 in0.0 mm
12:05 PM 90.4°F32.4°C 77.0°F25.0°C 65% 3.0 mph WNW4.8 kmh WNW 8.0 mph12.9 kmh 30.13 in1020.3 mb 0.00 in0.0 mm 0.00 in0.0 mm 0.00 in0.0 mm
12:10 PM 90.6°F32.6°C 78.6°F25.9°C 68% 2.0 mph W3.2 kmh W 8.0 mph12.9 kmh 30.13 in1020.3 mb 0.00 in0.0 mm 0.00 in0.0 mm 0.00 in0.0 mm
12:15 PM 90.8°F32.7°C 77.9°F25.5°C 66% 2.0 mph W3.2 kmh W 4.0 mph6.4 kmh 30.12 in1020.0 mb 0.00 in0.0 mm 0.00 in0.0 mm 0.00 in0.0 mm
12:20 PM 91.0°F32.8°C 79.4°F26.3°C 69% 2.0 mph W3.2 kmh W 5.0 mph8.0 kmh 30.12 in1020.0 mb 0.00 in0.0 mm 0.00 in0.0 mm 0.00 in0.0 mm
12:25 PM 91.2°F32.9°C 78.7°F25.9°C 67% 3.0 mph NW4.8 kmh NW 11.0 mph17.7 kmh 30.12 in1020.0 mb 0.00 in0.0 mm 0.00 in0.0 mm 0.00 in0.0 mm
12:30 PM 91.4°F33.0°C 78.4°F25.8°C 66% 3.0 mph NW4.8 kmh NW 11.0 mph17.7 kmh 30.12 in1020.0 mb 0.00 in0.0 mm 0.00 in0.0 mm 0.00 in0.0 mm
12:35 PM 91.5°F33.1°C 77.6°F25.3°C 64% 3.0 mph NW4.8 kmh NW 7.0 mph11.3 kmh 30.12 in1020.0 mb 0.00 in0.0 mm 0.00 in0.0 mm 0.00 in0.0 mm
12:40 PM 91.5°F33.1°C 78.5°F25.8°C 66% 3.0 mph NW4.8 kmh NW 7.0 mph11.3 kmh 30.12 in1020.0 mb 0.00 in0.0 mm 0.00 in0.0 mm 0.00 in0.0 mm
12:45 PM 91.5°F33.1°C 78.1°F25.6°C 65% 3.0 mph NW4.8 kmh NW 6.0 mph9.7 kmh 30.12 in1020.0 mb 0.00 in0.0 mm 0.00 in0.0 mm 0.00 in0.0 mm
12:50 PM 91.4°F33.0°C 78.9°F26.1°C 67% 3.0 mph NW4.8 kmh NW 9.0 mph14.5 kmh 30.12 in1020.0 mb 0.00 in0.0 mm 0.00 in0.0 mm 0.00 in0.0 mm
12:55 PM 91.2°F32.9°C 77.8°F25.4°C 65% 3.0 mph NW4.8 kmh NW 9.0 mph14.5 kmh 30.12 in1020.0 mb 0.00 in0.0 mm 0.00 in0.0 mm 0.00 in0.0 mm
01:00 PM 91.0°F32.8°C 78.1°F25.6°C 66% 3.0 mph W4.8 kmh W 7.0 mph11.3 kmh 30.12 in1020.0 mb 0.00 in0.0 mm 0.00 in0.0 mm 0.00 in0.0 mm
01:05 PM 91.1°F32.8°C 79.1°F26.2°C 68% 2.0 mph WSW3.2 kmh WSW 7.0 mph11.3 kmh 30.12 in1020.0 mb 0.00 in0.0 mm 0.00 in0.0 mm 0.00 in0.0 mm
01:10 PM 91.2°F32.9°C 78.7°F25.9°C 67% 2.0 mph WSW3.2 kmh WSW 8.0 mph12.9 kmh 30.11 in1019.6 mb 0.00 in0.0 mm 0.00 in0.0 mm 0.00 in0.0 mm
01:15 PM 91.3°F32.9°C 77.9°F25.5°C 65% 2.0 mph WSW3.2 kmh WSW 8.0 mph12.9 kmh 30.11 in1019.6 mb 0.00 in0.0 mm 0.00 in0.0 mm 0.00 in0.0 mm
01:20 PM 91.4°F33.0°C 78.0°F25.6°C 65% 2.0 mph W3.2 kmh W 5.0 mph8.0 kmh 30.11 in1019.6 mb 0.00 in0.0 mm 0.00 in0.0 mm 0.00 in0.0 mm
01:25 PM 91.5°F33.1°C 78.1°F25.6°C 65% 2.0 mph NW3.2 kmh NW 5.0 mph8.0 kmh 30.11 in1019.6 mb 0.00 in0.0 mm 0.00 in0.0 mm 0.00 in0.0 mm
01:30 PM 91.6°F33.1°C 78.2°F25.7°C 65% 2.0 mph WNW3.2 kmh WNW 5.0 mph8.0 kmh 30.10 in1019.3 mb 0.00 in0.0 mm 0.00 in0.0 mm 0.00 in0.0 mm
01:35 PM 91.8°F33.2°C 78.4°F25.8°C 65% 3.0 mph WNW4.8 kmh WNW 6.0 mph9.7 kmh 30.11 in1019.6 mb 0.00 in0.0 mm 0.00 in0.0 mm 0.00 in0.0 mm
01:40 PM 92.0°F33.3°C 79.5°F26.4°C 67% 3.0 mph WNW4.8 kmh WNW 6.0 mph9.7 kmh 30.10 in1019.3 mb 0.00 in0.0 mm 0.00 in0.0 mm 0.00 in0.0 mm
01:45 PM 92.8°F33.8°C 80.2°F26.8°C 67% 3.0 mph WNW4.8 kmh WNW 8.0 mph12.9 kmh 30.10 in1019.3 mb 0.00 in0.0 mm 0.00 in0.0 mm 0.00 in0.0 mm
01:50 PM 93.5°F34.2°C 78.5°F25.8°C 62% 3.0 mph W4.8 kmh W 9.0 mph14.5 kmh 30.10 in1019.3 mb 0.00 in0.0 mm 0.00 in0.0 mm 0.00 in0.0 mm
01:55 PM 94.2°F34.6°C 79.2°F26.2°C 62% 3.0 mph W4.8 kmh W 9.0 mph14.5 kmh 30.10 in1019.3 mb 0.00 in0.0 mm 0.00 in0.0 mm 0.00 in0.0 mm
02:00 PM 94.4°F34.7°C 79.4°F26.3°C 62% 3.0 mph NW4.8 kmh NW 8.0 mph12.9 kmh 30.10 in1019.3 mb 0.00 in0.0 mm 0.00 in0.0 mm 0.00 in0.0 mm
02:05 PM 94.2°F34.6°C 78.7°F25.9°C 61% 3.0 mph NW4.8 kmh NW 8.0 mph12.9 kmh 30.09 in1019.0 mb 0.00 in0.0 mm 0.00 in0.0 mm 0.00 in0.0 mm
02:10 PM 94.0°F34.4°C 78.5°F25.8°C 61% 2.0 mph WSW3.2 kmh WSW 6.0 mph9.7 kmh 30.09 in1019.0 mb 0.00 in0.0 mm 0.00 in0.0 mm 0.00 in0.0 mm
02:15 PM 94.5°F34.7°C 79.0°F26.1°C 61% 2.0 mph W3.2 kmh W 6.0 mph9.7 kmh 30.09 in1019.0 mb 0.00 in0.0 mm 0.00 in0.0 mm 0.00 in0.0 mm
02:20 PM 94.4°F34.7°C 78.9°F26.1°C 61% 3.0 mph NW4.8 kmh NW 8.0 mph12.9 kmh 30.09 in1019.0 mb 0.00 in0.0 mm 0.00 in0.0 mm 0.00 in0.0 mm
02:25 PM 94.7°F34.8°C 79.7°F26.5°C 62% 2.0 mph NW3.2 kmh NW 8.0 mph12.9 kmh 30.08 in1018.6 mb 0.00 in0.0 mm 0.00 in0.0 mm 0.00 in0.0 mm
02:30 PM 95.3°F35.2°C 79.2°F26.2°C 60% 2.0 mph W3.2 kmh W 10.0 mph16.1 kmh 30.08 in1018.6 mb 0.00 in0.0 mm 0.00 in0.0 mm 0.00 in0.0 mm
02:35 PM 95.8°F35.4°C 81.7°F27.6°C 64% 3.0 mph WSW4.8 kmh WSW 10.0 mph16.1 kmh 30.08 in1018.6 mb 0.00 in0.0 mm 0.00 in0.0 mm 0.00 in0.0 mm
02:40 PM 95.7°F35.4°C 79.1°F26.2°C 59% 3.0 mph WSW4.8 kmh WSW 5.0 mph8.0 kmh 30.08 in1018.6 mb 0.00 in0.0 mm 0.00 in0.0 mm 0.00 in0.0 mm
02:45 PM 95.9°F35.5°C 78.2°F25.7°C 57% 2.0 mph WNW3.2 kmh WNW 4.0 mph6.4 kmh 30.08 in1018.6 mb 0.00 in0.0 mm 0.00 in0.0 mm 0.00 in0.0 mm
02:50 PM 96.2°F35.7°C 79.0°F26.1°C 58% 3.0 mph NW4.8 kmh NW 8.0 mph12.9 kmh 30.08 in1018.6 mb 0.00 in0.0 mm 0.00 in0.0 mm 0.00 in0.0 mm
02:55 PM 96.4°F35.8°C 78.1°F25.6°C 56% 3.0 mph NW4.8 kmh NW 8.0 mph12.9 kmh 30.08 in1018.6 mb 0.00 in0.0 mm 0.00 in0.0 mm 0.00 in0.0 mm
03:00 PM 97.0°F36.1°C 77.6°F25.3°C 54% 2.0 mph W3.2 kmh W 9.0 mph14.5 kmh 30.08 in1018.6 mb 0.00 in0.0 mm 0.00 in0.0 mm 0.00 in0.0 mm
03:05 PM 97.3°F36.3°C 78.4°F25.8°C 55% 3.0 mph W4.8 kmh W 10.0 mph16.1 kmh 30.08 in1018.6 mb 0.00 in0.0 mm 0.00 in0.0 mm 0.00 in0.0 mm
03:10 PM 97.3°F36.3°C 77.3°F25.2°C 53% 3.0 mph W4.8 kmh W 10.0 mph16.1 kmh 30.07 in1018.3 mb 0.00 in0.0 mm 0.00 in0.0 mm 0.00 in0.0 mm
03:15 PM 97.3°F36.3°C 77.9°F25.5°C 54% 2.0 mph WSW3.2 kmh WSW 8.0 mph12.9 kmh 30.07 in1018.3 mb 0.00 in0.0 mm 0.00 in0.0 mm 0.00 in0.0 mm
03:20 PM 96.7°F35.9°C 78.4°F25.8°C 56% 1.0 mph W1.6 kmh W 5.0 mph8.0 kmh 30.07 in1018.3 mb 0.00 in0.0 mm 0.00 in0.0 mm 0.00 in0.0 mm
03:25 PM 96.2°F35.7°C 79.0°F26.1°C 58% 2.0 mph NW3.2 kmh NW 5.0 mph8.0 kmh 30.07 in1018.3 mb 0.00 in0.0 mm 0.00 in0.0 mm 0.00 in0.0 mm
03:30 PM 96.5°F35.8°C 78.8°F26.0°C 57% 3.0 mph NW4.8 kmh NW 7.0 mph11.3 kmh 30.06 in1017.9 mb 0.00 in0.0 mm 0.00 in0.0 mm 0.00 in0.0 mm
03:35 PM 96.1°F35.6°C 78.4°F25.8°C 57% 3.0 mph W4.8 kmh W 7.0 mph11.3 kmh 30.06 in1017.9 mb 0.00 in0.0 mm 0.00 in0.0 mm 0.00 in0.0 mm
03:40 PM 96.6°F35.9°C 79.9°F26.6°C 59% 2.0 mph WSW3.2 kmh WSW 7.0 mph11.3 kmh 30.06 in1017.9 mb 0.00 in0.0 mm 0.00 in0.0 mm 0.00 in0.0 mm
03:45 PM 97.5°F36.4°C 79.2°F26.2°C 56% 2.0 mph NW3.2 kmh NW 6.0 mph9.7 kmh 30.06 in1017.9 mb 0.00 in0.0 mm 0.00 in0.0 mm 0.00 in0.0 mm
03:50 PM 98.0°F36.7°C 78.5°F25.8°C 54% 2.0 mph NW3.2 kmh NW 8.0 mph12.9 kmh 30.06 in1017.9 mb 0.00 in0.0 mm 0.00 in0.0 mm 0.00 in0.0 mm
03:55 PM 98.2°F36.8°C 78.1°F25.6°C 53% 3.0 mph NW4.8 kmh NW 10.0 mph16.1 kmh 30.05 in1017.6 mb 0.00 in0.0 mm 0.00 in0.0 mm 0.00 in0.0 mm
04:00 PM 98.0°F36.7°C 77.4°F25.2°C 52% 4.0 mph NW6.4 kmh NW 10.0 mph16.1 kmh 30.05 in1017.6 mb 0.00 in0.0 mm 0.00 in0.0 mm 0.00 in0.0 mm
04:05 PM 97.1°F36.2°C 78.2°F25.7°C 55% 3.0 mph NW4.8 kmh NW 9.0 mph14.5 kmh 30.05 in1017.6 mb 0.00 in0.0 mm 0.00 in0.0 mm 0.00 in0.0 mm
04:10 PM 96.4°F35.8°C 78.1°F25.6°C 56% 3.0 mph WNW4.8 kmh WNW 9.0 mph14.5 kmh 30.05 in1017.6 mb 0.00 in0.0 mm 0.00 in0.0 mm 0.00 in0.0 mm
04:15 PM 95.8°F35.4°C 78.6°F25.9°C 58% 3.0 mph W4.8 kmh W 9.0 mph14.5 kmh 30.05 in1017.6 mb 0.00 in0.0 mm 0.00 in0.0 mm 0.00 in0.0 mm
04:20 PM 96.0°F35.6°C 78.3°F25.7°C 57% 3.0 mph W4.8 kmh W 8.0 mph12.9 kmh 30.05 in1017.6 mb 0.00 in0.0 mm 0.00 in0.0 mm 0.00 in0.0 mm
04:25 PM 96.4°F35.8°C 78.1°F25.6°C 56% 3.0 mph W4.8 kmh W 7.0 mph11.3 kmh 30.05 in1017.6 mb 0.00 in0.0 mm 0.00 in0.0 mm 0.00 in0.0 mm
04:30 PM 96.7°F35.9°C 79.0°F26.1°C 57% 3.0 mph WSW4.8 kmh WSW 8.0 mph12.9 kmh 30.05 in1017.6 mb 0.00 in0.0 mm 0.00 in0.0 mm 0.00 in0.0 mm
04:35 PM 95.9°F35.5°C 77.7°F25.4°C 56% 3.0 mph WSW4.8 kmh WSW 8.0 mph12.9 kmh 30.05 in1017.6 mb 0.00 in0.0 mm 0.00 in0.0 mm 0.00 in0.0 mm
04:40 PM 95.4°F35.2°C 78.3°F25.7°C 58% 3.0 mph W4.8 kmh W 6.0 mph9.7 kmh 30.05 in1017.6 mb 0.00 in0.0 mm 0.00 in0.0 mm 0.00 in0.0 mm
04:45 PM 95.2°F35.1°C 78.6°F25.9°C 59% 3.0 mph WSW4.8 kmh WSW 7.0 mph11.3 kmh 30.05 in1017.6 mb 0.00 in0.0 mm 0.00 in0.0 mm 0.00 in0.0 mm
04:50 PM 94.5°F34.7°C 78.0°F25.6°C 59% 3.0 mph WSW4.8 kmh WSW 7.0 mph11.3 kmh 30.05 in1017.6 mb 0.00 in0.0 mm 0.00 in0.0 mm 0.00 in0.0 mm
04:55 PM 94.2°F34.6°C 78.7°F25.9°C 61% 2.0 mph WSW3.2 kmh WSW 6.0 mph9.7 kmh 30.05 in1017.6 mb 0.00 in0.0 mm 0.00 in0.0 mm 0.00 in0.0 mm
05:00 PM 93.6°F34.2°C 78.1°F25.6°C 61% 3.0 mph WSW4.8 kmh WSW 9.0 mph14.5 kmh 30.05 in1017.6 mb 0.00 in0.0 mm 0.00 in0.0 mm 0.00 in0.0 mm
05:05 PM 93.5°F34.2°C 78.0°F25.6°C 61% 3.0 mph W4.8 kmh W 9.0 mph14.5 kmh 30.05 in1017.6 mb 0.00 in0.0 mm 0.00 in0.0 mm 0.00 in0.0 mm
05:10 PM 93.6°F34.2°C 78.1°F25.6°C 61% 3.0 mph WNW4.8 kmh WNW 7.0 mph11.3 kmh 30.05 in1017.6 mb 0.00 in0.0 mm 0.00 in0.0 mm 0.00 in0.0 mm
05:15 PM 93.7°F34.3°C 77.2°F25.1°C 59% 3.0 mph W4.8 kmh W 8.0 mph12.9 kmh 30.05 in1017.6 mb 0.00 in0.0 mm 0.00 in0.0 mm 0.00 in0.0 mm
05:20 PM 94.2°F34.6°C 78.7°F25.9°C 61% 3.0 mph WSW4.8 kmh WSW 8.0 mph12.9 kmh 30.05 in1017.6 mb 0.00 in0.0 mm 0.00 in0.0 mm 0.00 in0.0 mm
05:25 PM 94.4°F34.7°C 77.3°F25.2°C 58% 3.0 mph WSW4.8 kmh WSW 8.0 mph12.9 kmh 30.05 in1017.6 mb 0.00 in0.0 mm 0.00 in0.0 mm 0.00 in0.0 mm
05:30 PM 94.3°F34.6°C 77.2°F25.1°C 58% 3.0 mph WSW4.8 kmh WSW 8.0 mph12.9 kmh 30.05 in1017.6 mb 0.00 in0.0 mm 0.00 in0.0 mm 0.00 in0.0 mm
05:35 PM 94.6°F34.8°C 77.5°F25.3°C 58% 2.0 mph WSW3.2 kmh WSW 9.0 mph14.5 kmh 30.05 in1017.6 mb 0.00 in0.0 mm 0.00 in0.0 mm 0.00 in0.0 mm
05:40 PM 94.5°F34.7°C 77.4°F25.2°C 58% 3.0 mph WSW4.8 kmh WSW 9.0 mph14.5 kmh 30.05 in1017.6 mb 0.00 in0.0 mm 0.00 in0.0 mm 0.00 in0.0 mm
05:45 PM 94.3°F34.6°C 76.7°F24.8°C 57% 4.0 mph WSW6.4 kmh WSW 9.0 mph14.5 kmh 30.05 in1017.6 mb 0.00 in0.0 mm 0.00 in0.0 mm 0.00 in0.0 mm
05:50 PM 94.2°F34.6°C 77.2°F25.1°C 58% 3.0 mph WSW4.8 kmh WSW 9.0 mph14.5 kmh 30.05 in1017.6 mb 0.00 in0.0 mm 0.00 in0.0 mm 0.00 in0.0 mm
05:55 PM 93.7°F34.3°C 77.2°F25.1°C 59% 3.0 mph WSW4.8 kmh WSW 9.0 mph14.5 kmh 30.05 in1017.6 mb 0.00 in0.0 mm 0.00 in0.0 mm 0.00 in0.0 mm
06:00 PM 93.1°F33.9°C 77.2°F25.1°C 60% 4.0 mph W6.4 kmh W 8.0 mph12.9 kmh 30.05 in1017.6 mb 0.00 in0.0 mm 0.00 in0.0 mm 0.00 in0.0 mm
06:05 PM 92.8°F33.8°C 77.4°F25.2°C 61% 3.0 mph W4.8 kmh W 8.0 mph12.9 kmh 30.05 in1017.6 mb 0.00 in0.0 mm 0.00 in0.0 mm 0.00 in0.0 mm
06:10 PM 92.4°F33.6°C 77.0°F25.0°C 61% 3.0 mph W4.8 kmh W 8.0 mph12.9 kmh 30.05 in1017.6 mb 0.00 in0.0 mm 0.00 in0.0 mm 0.00 in0.0 mm
06:15 PM 91.9°F33.3°C 77.0°F25.0°C 62% 3.0 mph W4.8 kmh W 8.0 mph12.9 kmh 30.06 in1017.9 mb 0.00 in0.0 mm 0.00 in0.0 mm 0.00 in0.0 mm
06:20 PM 91.5°F33.1°C 76.6°F24.8°C 62% 3.0 mph WSW4.8 kmh WSW 9.0 mph14.5 kmh 30.05 in1017.6 mb 0.00 in0.0 mm 0.00 in0.0 mm 0.00 in0.0 mm
06:25 PM 90.9°F32.7°C 76.1°F24.5°C 62% 3.0 mph WSW4.8 kmh WSW 9.0 mph14.5 kmh 30.06 in1017.9 mb 0.00 in0.0 mm 0.00 in0.0 mm 0.00 in0.0 mm
06:30 PM 90.5°F32.5°C 76.2°F24.6°C 63% 2.0 mph W3.2 kmh W 7.0 mph11.3 kmh 30.06 in1017.9 mb 0.00 in0.0 mm 0.00 in0.0 mm 0.00 in0.0 mm
06:35 PM 90.1°F32.3°C 76.3°F24.6°C 64% 2.0 mph W3.2 kmh W 7.0 mph11.3 kmh 30.06 in1017.9 mb 0.00 in0.0 mm 0.00 in0.0 mm 0.00 in0.0 mm
06:40 PM 89.5°F31.9°C 76.2°F24.6°C 65% 2.0 mph W3.2 kmh W 7.0 mph11.3 kmh 30.06 in1017.9 mb 0.00 in0.0 mm 0.00 in0.0 mm 0.00 in0.0 mm
06:45 PM 89.1°F31.7°C 75.8°F24.3°C 65% 2.0 mph W3.2 kmh W 7.0 mph11.3 kmh 30.06 in1017.9 mb 0.00 in0.0 mm 0.00 in0.0 mm 0.00 in0.0 mm
06:50 PM 88.8°F31.6°C 76.0°F24.4°C 66% 2.0 mph W3.2 kmh W 8.0 mph12.9 kmh 30.06 in1017.9 mb 0.00 in0.0 mm 0.00 in0.0 mm 0.00 in0.0 mm
06:55 PM 88.6°F31.4°C 76.2°F24.6°C 67% 2.0 mph WNW3.2 kmh WNW 8.0 mph12.9 kmh 30.06 in1017.9 mb 0.00 in0.0 mm 0.00 in0.0 mm 0.00 in0.0 mm
07:00 PM 88.3°F31.3°C 76.4°F24.7°C 68% 2.0 mph WNW3.2 kmh WNW 7.0 mph11.3 kmh 30.06 in1017.9 mb 0.00 in0.0 mm 0.00 in0.0 mm 0.00 in0.0 mm
07:05 PM 88.0°F31.1°C 76.1°F24.5°C 68% 3.0 mph NW4.8 kmh NW 8.0 mph12.9 kmh 30.07 in1018.3 mb 0.00 in0.0 mm 0.00 in0.0 mm 0.00 in0.0 mm
07:10 PM 87.7°F30.9°C 76.3°F24.6°C 69% 3.0 mph NW4.8 kmh NW 8.0 mph12.9 kmh 30.07 in1018.3 mb 0.00 in0.0 mm 0.00 in0.0 mm 0.00 in0.0 mm
07:15 PM 87.4°F30.8°C 76.0°F24.4°C 69% 2.0 mph WNW3.2 kmh WNW 7.0 mph11.3 kmh 30.07 in1018.3 mb 0.00 in0.0 mm 0.00 in0.0 mm 0.00 in0.0 mm
07:20 PM 87.2°F30.7°C 76.2°F24.6°C 70% 2.0 mph WNW3.2 kmh WNW 4.0 mph6.4 kmh 30.07 in1018.3 mb 0.00 in0.0 mm 0.00 in0.0 mm 0.00 in0.0 mm
07:25 PM 86.9°F30.5°C 75.9°F24.4°C 70% 1.0 mph NW1.6 kmh NW 3.0 mph4.8 kmh 30.07 in1018.3 mb 0.00 in0.0 mm 0.00 in0.0 mm 0.00 in0.0 mm
07:30 PM 86.6°F30.3°C 76.1°F24.5°C 71% 1.0 mph NW1.6 kmh NW 3.0 mph4.8 kmh 30.07 in1018.3 mb 0.00 in0.0 mm 0.00 in0.0 mm 0.00 in0.0 mm
07:35 PM 86.3°F30.2°C 75.8°F24.3°C 71% 1.0 mph NW1.6 kmh NW 8.0 mph12.9 kmh 30.07 in1018.3 mb 0.00 in0.0 mm 0.00 in0.0 mm 0.00 in0.0 mm
07:40 PM 85.9°F29.9°C 75.0°F23.9°C 70% 2.0 mph NW3.2 kmh NW 8.0 mph12.9 kmh 30.07 in1018.3 mb 0.00 in0.0 mm 0.00 in0.0 mm 0.00 in0.0 mm
07:45 PM 85.9°F29.9°C 75.4°F24.1°C 71% 2.0 mph NW3.2 kmh NW 5.0 mph8.0 kmh 30.07 in1018.3 mb 0.00 in0.0 mm 0.00 in0.0 mm 0.00 in0.0 mm
07:50 PM 85.6°F29.8°C 75.1°F23.9°C 71% 2.0 mph NW3.2 kmh NW 5.0 mph8.0 kmh 30.07 in1018.3 mb 0.00 in0.0 mm 0.00 in0.0 mm 0.00 in0.0 mm
07:55 PM 85.3°F29.6°C 74.8°F23.8°C 71% 3.0 mph NW4.8 kmh NW 5.0 mph8.0 kmh 30.08 in1018.6 mb 0.00 in0.0 mm 0.00 in0.0 mm 0.00 in0.0 mm
08:00 PM 85.2°F29.6°C 74.7°F23.7°C 71% 3.0 mph NW4.8 kmh NW 8.0 mph12.9 kmh 30.08 in1018.6 mb 0.00 in0.0 mm 0.00 in0.0 mm 0.00 in0.0 mm
08:05 PM 85.1°F29.5°C 74.6°F23.7°C 71% 3.0 mph NW4.8 kmh NW 8.0 mph12.9 kmh 30.08 in1018.6 mb 0.00 in0.0 mm 0.00 in0.0 mm 0.00 in0.0 mm
08:10 PM 84.9°F29.4°C 74.4°F23.6°C 71% 3.0 mph NW4.8 kmh NW 7.0 mph11.3 kmh 30.08 in1018.6 mb 0.00 in0.0 mm 0.00 in0.0 mm 0.00 in0.0 mm
08:15 PM 84.8°F29.3°C 74.8°F23.8°C 72% 2.0 mph NW3.2 kmh NW 5.0 mph8.0 kmh 30.08 in1018.6 mb 0.00 in0.0 mm 0.00 in0.0 mm 0.00 in0.0 mm
08:20 PM 84.6°F29.2°C 75.0°F23.9°C 73% 2.0 mph NW3.2 kmh NW 6.0 mph9.7 kmh 30.08 in1018.6 mb 0.00 in0.0 mm 0.00 in0.0 mm 0.00 in0.0 mm
08:25 PM 84.4°F29.1°C 74.8°F23.8°C 73% 3.0 mph NW4.8 kmh NW 10.0 mph16.1 kmh 30.08 in1018.6 mb 0.00 in0.0 mm 0.00 in0.0 mm 0.00 in0.0 mm
08:30 PM 84.3°F29.1°C 75.1°F23.9°C 74% 3.0 mph NW4.8 kmh NW 10.0 mph16.1 kmh 30.08 in1018.6 mb 0.00 in0.0 mm 0.00 in0.0 mm 0.00 in0.0 mm
08:35 PM 84.2°F29.0°C 75.4°F24.1°C 75% 3.0 mph NW4.8 kmh NW 9.0 mph14.5 kmh 30.08 in1018.6 mb 0.00 in0.0 mm 0.00 in0.0 mm 0.00 in0.0 mm
08:40 PM 84.0°F28.9°C 75.2°F24.0°C 75% 4.0 mph NW6.4 kmh NW 8.0 mph12.9 kmh 30.08 in1018.6 mb 0.00 in0.0 mm 0.00 in0.0 mm 0.00 in0.0 mm
08:45 PM 83.8°F28.8°C 75.4°F24.1°C 76% 3.0 mph NW4.8 kmh NW 8.0 mph12.9 kmh 30.08 in1018.6 mb 0.00 in0.0 mm 0.00 in0.0 mm 0.00 in0.0 mm
08:50 PM 83.7°F28.7°C 75.3°F24.1°C 76% 3.0 mph NW4.8 kmh NW 7.0 mph11.3 kmh 30.08 in1018.6 mb 0.00 in0.0 mm 0.00 in0.0 mm 0.00 in0.0 mm
08:55 PM 83.5°F28.6°C 75.5°F24.2°C 77% 3.0 mph NW4.8 kmh NW 7.0 mph11.3 kmh 30.08 in1018.6 mb 0.00 in0.0 mm 0.00 in0.0 mm 0.00 in0.0 mm
09:00 PM 83.4°F28.6°C 75.8°F24.3°C 78% 3.0 mph NW4.8 kmh NW 10.0 mph16.1 kmh 30.08 in1018.6 mb 0.00 in0.0 mm 0.00 in0.0 mm 0.00 in0.0 mm
09:05 PM 83.2°F28.4°C 75.6°F24.2°C 78% 3.0 mph NW4.8 kmh NW 10.0 mph16.1 kmh 30.08 in1018.6 mb 0.00 in0.0 mm 0.00 in0.0 mm 0.00 in0.0 mm
09:10 PM 83.0°F28.3°C 75.4°F24.1°C 78% 3.0 mph NW4.8 kmh NW 9.0 mph14.5 kmh 30.09 in1019.0 mb 0.00 in0.0 mm 0.00 in0.0 mm 0.00 in0.0 mm
09:15 PM 82.9°F28.3°C 75.7°F24.3°C 79% 3.0 mph NW4.8 kmh NW 9.0 mph14.5 kmh 30.09 in1019.0 mb 0.00 in0.0 mm 0.00 in0.0 mm 0.00 in0.0 mm
09:20 PM 82.7°F28.2°C 75.9°F24.4°C 80% 2.0 mph NW3.2 kmh NW 5.0 mph8.0 kmh 30.09 in1019.0 mb 0.00 in0.0 mm 0.00 in0.0 mm 0.00 in0.0 mm
09:25 PM 82.5°F28.1°C 75.7°F24.3°C 80% 2.0 mph NW3.2 kmh NW 4.0 mph6.4 kmh 30.09 in1019.0 mb 0.00 in0.0 mm 0.00 in0.0 mm 0.00 in0.0 mm
09:30 PM 82.3°F27.9°C 75.5°F24.2°C 80% 1.0 mph NW1.6 kmh NW 3.0 mph4.8 kmh 30.09 in1019.0 mb 0.00 in0.0 mm 0.00 in0.0 mm 0.00 in0.0 mm
09:35 PM 82.1°F27.8°C 75.7°F24.3°C 81% 1.0 mph NW1.6 kmh NW 4.0 mph6.4 kmh 30.08 in1018.6 mb 0.00 in0.0 mm 0.00 in0.0 mm 0.00 in0.0 mm
09:40 PM 81.9°F27.7°C 75.5°F24.2°C 81% 1.0 mph NW1.6 kmh NW 4.0 mph6.4 kmh 30.08 in1018.6 mb 0.00 in0.0 mm 0.00 in0.0 mm 0.00 in0.0 mm
09:45 PM 81.7°F27.6°C 75.3°F24.1°C 81% 1.0 mph NW1.6 kmh NW 4.0 mph6.4 kmh 30.09 in1019.0 mb 0.00 in0.0 mm 0.00 in0.0 mm 0.00 in0.0 mm
09:50 PM 81.5°F27.5°C 75.5°F24.2°C 82% 1.0 mph WNW1.6 kmh WNW 2.0 mph3.2 kmh 30.08 in1018.6 mb 0.00 in0.0 mm 0.00 in0.0 mm 0.00 in0.0 mm
09:55 PM 81.2°F27.3°C 75.2°F24.0°C 82% Calm Calm 1.0 mph1.6 kmh 30.08 in1018.6 mb 0.00 in0.0 mm 0.00 in0.0 mm 0.00 in0.0 mm
10:00 PM 80.9°F27.2°C 75.2°F24.0°C 83% Calm Calm 1.0 mph1.6 kmh 30.08 in1018.6 mb 0.00 in0.0 mm 0.00 in0.0 mm 0.00 in0.0 mm
10:05 PM 80.5°F26.9°C 74.9°F23.8°C 83% 1.0 mph WNW1.6 kmh WNW 2.0 mph3.2 kmh 30.09 in1019.0 mb 0.00 in0.0 mm 0.00 in0.0 mm 0.00 in0.0 mm
10:10 PM 80.2°F26.8°C 74.9°F23.8°C 84% 1.0 mph WNW1.6 kmh WNW 2.0 mph3.2 kmh 30.08 in1018.6 mb 0.00 in0.0 mm 0.00 in0.0 mm 0.00 in0.0 mm
10:15 PM 79.9°F26.6°C 74.6°F23.7°C 84% Calm Calm 1.0 mph1.6 kmh 30.09 in1019.0 mb 0.00 in0.0 mm 0.00 in0.0 mm 0.00 in0.0 mm
10:20 PM 79.6°F26.4°C 74.3°F23.5°C 84% Calm Calm 1.0 mph1.6 kmh 30.08 in1018.6 mb 0.00 in0.0 mm 0.00 in0.0 mm 0.00 in0.0 mm
10:25 PM 79.3°F26.3°C 74.7°F23.7°C 86% Calm Calm 1.0 mph1.6 kmh 30.09 in1019.0 mb 0.00 in0.0 mm 0.00 in0.0 mm 0.00 in0.0 mm
10:30 PM 78.9°F26.1°C 74.4°F23.6°C 86% Calm Calm 1.0 mph1.6 kmh 30.09 in1019.0 mb 0.00 in0.0 mm 0.00 in0.0 mm 0.00 in0.0 mm
10:35 PM 78.6°F25.9°C 74.4°F23.6°C 87% Calm Calm 1.0 mph1.6 kmh 30.09 in1019.0 mb 0.00 in0.0 mm 0.00 in0.0 mm 0.00 in0.0 mm
10:40 PM 78.3°F25.7°C 74.1°F23.4°C 87% Calm Calm 1.0 mph1.6 kmh 30.08 in1018.6 mb 0.00 in0.0 mm 0.00 in0.0 mm 0.00 in0.0 mm
10:45 PM 78.0°F25.6°C 74.2°F23.4°C 88% Calm Calm 1.0 mph1.6 kmh 30.08 in1018.6 mb 0.00 in0.0 mm 0.00 in0.0 mm 0.00 in0.0 mm
10:50 PM 77.7°F25.4°C 73.9°F23.3°C 88% Calm Calm 1.0 mph1.6 kmh 30.08 in1018.6 mb 0.00 in0.0 mm 0.00 in0.0 mm 0.00 in0.0 mm
10:55 PM 77.4°F25.2°C 73.9°F23.3°C 89% Calm Calm 1.0 mph1.6 kmh 30.09 in1019.0 mb 0.00 in0.0 mm 0.00 in0.0 mm 0.00 in0.0 mm
11:00 PM 77.1°F25.1°C 73.6°F23.1°C 89% Calm Calm -- 30.09 in1019.0 mb 0.00 in0.0 mm 0.00 in0.0 mm 0.00 in0.0 mm
11:05 PM 76.9°F24.9°C 73.7°F23.2°C 90% Calm Calm 1.0 mph1.6 kmh 30.09 in1019.0 mb 0.00 in0.0 mm 0.00 in0.0 mm 0.00 in0.0 mm
11:10 PM 76.7°F24.8°C 73.9°F23.3°C 91% Calm Calm 1.0 mph1.6 kmh 30.09 in1019.0 mb 0.00 in0.0 mm 0.00 in0.0 mm 0.00 in0.0 mm
11:15 PM 76.4°F24.7°C 73.6°F23.1°C 91% Calm Calm 1.0 mph1.6 kmh 30.09 in1019.0 mb 0.00 in0.0 mm 0.00 in0.0 mm 0.00 in0.0 mm
11:20 PM 76.3°F24.6°C 73.8°F23.2°C 92% Calm Calm 1.0 mph1.6 kmh 30.09 in1019.0 mb 0.00 in0.0 mm 0.00 in0.0 mm 0.00 in0.0 mm
11:25 PM 76.1°F24.5°C 73.6°F23.1°C 92% Calm Calm 1.0 mph1.6 kmh 30.09 in1019.0 mb 0.00 in0.0 mm 0.00 in0.0 mm 0.00 in0.0 mm
11:30 PM 76.0°F24.4°C 73.5°F23.1°C 92% Calm Calm 1.0 mph1.6 kmh 30.09 in1019.0 mb 0.00 in0.0 mm 0.00 in0.0 mm 0.00 in0.0 mm
11:35 PM 75.8°F24.3°C 73.6°F23.1°C 93% Calm Calm 1.0 mph1.6 kmh 30.10 in1019.3 mb 0.00 in0.0 mm 0.00 in0.0 mm 0.00 in0.0 mm
11:40 PM 75.8°F24.3°C 73.6°F23.1°C 93% 1.0 mph WNW1.6 kmh WNW 2.0 mph3.2 kmh 30.10 in1019.3 mb 0.00 in0.0 mm 0.00 in0.0 mm 0.00 in0.0 mm
11:45 PM 75.8°F24.3°C 74.3°F23.5°C 95% 1.0 mph WNW1.6 kmh WNW 3.0 mph4.8 kmh 30.10 in1019.3 mb 0.00 in0.0 mm 0.00 in0.0 mm 0.00 in0.0 mm
11:50 PM 75.9°F24.4°C 74.4°F23.6°C 95% 1.0 mph WNW1.6 kmh WNW 3.0 mph4.8 kmh 30.10 in1019.3 mb 0.00 in0.0 mm 0.00 in0.0 mm 0.00 in0.0 mm
11:55 PM 75.9°F24.4°C 74.4°F23.6°C 95% Calm Calm 1.0 mph1.6 kmh 30.10 in1019.3 mb 0.00 in0.0 mm 0.00 in0.0 mm 0.00 in0.0 mm